3°C Temp
0°C Dewpoint
% Humidity
Temperature
8 KM/H
5 MPH
4 KTS
260°
Due West

Wind Speed
Mostly Cloudy
Conditions
Pressure 1022.92 (hPa) - 30.21 (in)
Visibility 6.2 (mi) - 10.0 (km)

Current Conditions
EDDG
Location 6km (3.2mi)
Metar :EDDG 220150Z 26004KT 9999 BKN036 03/M00 Q1023 NOSIG
Thu 22nd April 02:50 am

Airport
  Metar Aviation API Data Provided by https://www.checkwx.com/ PHP scripts by weather34.com ©2021